Time;durP1;ratioP1;P1;durP2;ratioP2;P2;SDS_P1;SDS_P2;PMS_P1;PMS_P2;Temp;Humidity;BMP_temperature;BMP_pressure;BME280_temperature;BME280_humidity;BME280_pressure;Samples;Min_cycle;Max_cycle;Signal;HPM_P1;HPM_P2
2022/12/12 00:01:52;;;;;;;11.30;6.90;;;;;;;-0.39;100.00;99565.41;105277;1295;67129;-77
2022/12/12 00:04:20;;;;;;;11.70;7.50;;;;;;;-0.34;100.00;99565.89;105172;1300;74047;-77
2022/12/12 00:06:49;;;;;;;14.00;8.10;;;;;;;-0.14;100.00;99566.31;105285;1294;60670;-78
2022/12/12 00:09:18;;;;;;;11.20;6.60;;;;;;;-0.12;100.00;99571.70;105480;1292;59857;-78
2022/12/12 00:11:47;;;;;;;11.70;7.10;;;;;;;-0.15;100.00;99573.02;105477;1294;72104;-78
2022/12/12 00:14:17;;;;;;;12.90;6.60;;;;;;;-0.24;100.00;99572.45;105426;1286;72131;-80
2022/12/12 00:16:45;;;;;;;12.10;7.00;;;;;;;-0.24;100.00;99573.13;105267;1292;70574;-79
2022/12/12 00:19:14;;;;;;;7.60;5.10;;;;;;;-0.20;100.00;99574.48;105249;1295;72472;-79
2022/12/12 00:21:43;;;;;;;7.00;4.40;;;;;;;-0.22;100.00;99572.02;105255;1296;60854;-79
2022/12/12 00:24:12;;;;;;;8.40;5.30;;;;;;;-0.26;100.00;99579.04;105445;1283;60634;-80
2022/12/12 00:26:41;;;;;;;11.10;6.40;;;;;;;-0.36;100.00;99583.06;105352;1288;74046;-80
2022/12/12 00:29:10;;;;;;;9.20;6.10;;;;;;;-0.12;100.00;99581.61;105329;1289;72128;-80
2022/12/12 00:31:39;;;;;;;10.80;6.30;;;;;;;0.02;100.00;99583.20;105259;1296;69252;-80
2022/12/12 00:34:08;;;;;;;10.90;6.80;;;;;;;-0.02;100.00;99578.63;105447;1292;74027;-77
2022/12/12 00:36:36;;;;;;;8.30;5.60;;;;;;;-0.21;100.00;99585.84;105448;1289;60431;-77
2022/12/12 00:39:05;;;;;;;11.90;7.00;;;;;;;-0.22;100.00;99587.25;105163;1295;59802;-77
2022/12/12 00:41:36;;;;;;;10.30;5.70;;;;;;;-0.24;100.00;99588.19;105285;1294;71858;-76
2022/12/12 00:44:05;;;;;;;10.10;5.80;;;;;;;-0.33;100.00;99587.06;105582;1286;71562;-81
2022/12/12 00:46:33;;;;;;;11.20;6.20;;;;;;;-0.35;100.00;99589.86;105434;1292;69760;-81
2022/12/12 00:49:03;;;;;;;8.20;5.60;;;;;;;-0.37;100.00;99590.14;105426;1289;72106;-80
2022/12/12 00:51:31;;;;;;;13.00;6.70;;;;;;;-0.38;100.00;99590.20;105369;1293;62625;-79
2022/12/12 00:54:00;;;;;;;11.70;6.60;;;;;;;-0.43;100.00;99592.99;105432;1300;59428;-78
2022/12/12 00:56:29;;;;;;;10.60;6.10;;;;;;;-0.38;100.00;99588.83;105396;1292;71819;-80
2022/12/12 00:58:58;;;;;;;10.00;6.20;;;;;;;-0.37;100.00;99589.61;105552;1298;70456;-79
2022/12/12 01:01:29;;;;;;;9.40;6.20;;;;;;;-0.35;100.00;99589.70;105447;1286;68833;-80
2022/12/12 01:03:59;;;;;;;11.60;6.60;;;;;;;-0.38;100.00;99592.58;105473;1283;72813;-78
2022/12/12 01:06:28;;;;;;;9.40;6.10;;;;;;;-0.41;100.00;99613.23;105216;1292;60505;-80
2022/12/12 01:08:58;;;;;;;9.70;6.10;;;;;;;-0.44;100.00;99632.21;105347;1297;61841;-82
2022/12/12 01:11:27;;;;;;;8.50;5.40;;;;;;;-0.43;100.00;99645.00;105098;1292;73596;-82
2022/12/12 01:13:56;;;;;;;12.20;7.10;;;;;;;-0.43;100.00;99653.86;105244;1290;71905;-84
2022/12/12 01:16:25;;;;;;;9.80;5.40;;;;;;;-0.50;100.00;99658.29;105099;1297;70901;-84
2022/12/12 01:18:54;;;;;;;8.50;5.70;;;;;;;-0.51;100.00;99641.07;105113;1296;71134;-83
2022/12/12 01:21:23;;;;;;;9.50;6.00;;;;;;;-0.54;100.00;99634.00;105244;1289;61992;-84
2022/12/12 01:23:52;;;;;;;8.40;5.70;;;;;;;-0.57;100.00;99623.86;105412;1287;60041;-83
2022/12/12 01:26:23;;;;;;;10.50;5.50;;;;;;;-0.59;100.00;99608.77;105283;1297;71842;-88
2022/12/12 01:28:52;;;;;;;9.70;5.60;;;;;;;-0.61;100.00;99599.42;105460;1289;68648;-89
2022/12/12 01:31:21;;;;;;;8.60;5.40;;;;;;;-0.59;100.00;99606.66;105253;1290;68853;-83
2022/12/12 01:33:50;;;;;;;9.80;6.40;;;;;;;-0.56;100.00;99603.80;105246;1294;73294;-83
2022/12/12 01:36:22;;;;;;;8.70;5.80;;;;;;;-0.58;100.00;99598.95;104203;1289;1415978;-83
2022/12/12 01:38:55;;;;;;;9.80;5.70;;;;;;;-0.54;100.00;99602.55;105143;1292;59206;-82
2022/12/12 01:41:24;;;;;;;8.70;5.50;;;;;;;-0.56;100.00;99612.86;105166;1299;71016;-83
2022/12/12 01:43:54;;;;;;;11.60;5.90;;;;;;;-0.56;100.00;99616.45;105505;1290;69923;-82
2022/12/12 01:46:55;;;;;;;7.00;4.40;;;;;;;-0.55;100.00;99611.65;104930;1295;70732;-83
2022/12/12 01:49:26;;;;;;;10.70;5.80;;;;;;;-0.53;100.00;99621.96;105125;1299;74028;-82
2022/12/12 01:51:59;;;;;;;10.80;6.30;;;;;;;-0.49;100.00;99640.45;104965;1298;62063;-84
2022/12/12 01:54:33;;;;;;;10.70;5.60;;;;;;;-0.46;100.00;99650.92;105114;1292;59023;-81
2022/12/12 01:57:07;;;;;;;10.00;5.50;;;;;;;-0.44;100.00;99657.50;105204;1285;71087;-80
2022/12/12 01:59:38;;;;;;;10.80;6.20;;;;;;;-0.43;100.00;99665.71;105379;1284;72417;-80
2022/12/12 02:02:08;;;;;;;10.50;5.30;;;;;;;-0.47;100.00;99667.23;105023;1296;67856;-81
2022/12/12 02:04:37;;;;;;;7.90;4.60;;;;;;;-0.45;100.00;99674.00;105145;1291;73450;-80
2022/12/12 02:07:06;;;;;;;9.90;6.10;;;;;;;-0.44;100.00;99674.28;105200;1299;61150;-79
2022/12/12 02:09:36;;;;;;;10.90;6.60;;;;;;;-0.44;100.00;99676.00;105428;1286;59805;-79
2022/12/12 02:12:05;;;;;;;7.80;5.00;;;;;;;-0.47;100.00;99676.45;105031;1288;72464;-79
2022/12/12 02:14:41;;;;;;;11.70;6.40;;;;;;;-0.46;100.00;99684.13;105343;1289;68826;-79
2022/12/12 02:18:00;;;;;;;12.80;7.30;;;;;;;-0.60;100.00;99692.39;104936;1300;69938;-78
2022/12/12 02:20:51;;;;;;;12.80;6.90;;;;;;;-0.64;100.00;99698.55;105036;1296;71948;-79
2022/12/12 02:23:38;;;;;;;12.20;7.50;;;;;;;-0.60;100.00;99707.13;105105;1295;60821;-78
2022/12/12 02:26:18;;;;;;;14.30;8.10;;;;;;;-0.58;100.00;99711.66;105423;1287;60256;-78
2022/12/12 02:29:16;;;;;;;14.10;7.90;;;;;;;-0.58;100.00;99714.20;105383;1292;74162;-78
2022/12/12 02:32:00;;;;;;;12.00;7.60;;;;;;;-0.61;100.00;99717.07;105559;1286;72270;-77
2022/12/12 02:35:27;;;;;;;14.40;7.60;;;;;;;-0.61;100.00;99715.70;105420;1289;69147;-77
2022/12/12 02:38:08;;;;;;;17.50;9.30;;;;;;;-0.58;100.00;99725.17;105292;1298;72070;-76
2022/12/12 02:41:03;;;;;;;17.70;9.70;;;;;;;-0.60;100.00;99728.17;105216;1295;60570;-77
2022/12/12 02:44:34;;;;;;;17.80;9.40;;;;;;;-0.60;100.00;99725.94;105234;1302;59592;-77
2022/12/12 02:47:15;;;;;;;20.90;11.50;;;;;;;-0.64;100.00;99723.71;104945;1292;73728;-77
2022/12/12 02:50:17;;;;;;;18.70;10.40;;;;;;;-0.65;100.00;99717.41;104963;1290;70968;-78
2022/12/12 02:52:47;;;;;;;20.40;9.70;;;;;;;-0.65;100.00;99711.28;105208;1285;68434;-77
2022/12/12 02:55:17;;;;;;;17.20;9.60;;;;;;;-0.70;100.00;99705.82;105167;1295;74062;-76
2022/12/12 02:57:48;;;;;;;21.10;10.80;;;;;;;-0.69;100.00;99709.73;105157;1305;59187;-78
2022/12/12 03:00:19;;;;;;;21.50;11.40;;;;;;;-0.68;100.00;99708.48;105222;1295;58301;-79
2022/12/12 03:10:22;;;;;;;20.00;10.40;;;;;;;-0.61;100.00;99702.88;105395;1289;70621;-81
2022/12/12 03:13:16;;;;;;;24.20;12.60;;;;;;;-0.54;100.00;99712.16;105416;1296;63373;-75
2022/12/12 03:16:12;;;;;;;22.30;10.90;;;;;;;-0.52;100.00;99718.09;105425;1292;60585;-77
2022/12/12 03:19:22;;;;;;;25.80;11.60;;;;;;;-0.56;100.00;99721.13;105411;1292;61145;-77
2022/12/12 03:22:00;;;;;;;25.10;11.30;;;;;;;-0.67;100.00;99721.26;105484;1292;73687;-77
2022/12/12 03:24:53;;;;;;;25.00;13.90;;;;;;;-0.67;100.00;99721.45;105597;1287;71604;-77
2022/12/12 03:27:51;;;;;;;26.40;13.60;;;;;;;-0.64;100.00;99716.36;105438;1292;68058;-81
2022/12/12 03:30:20;;;;;;;28.00;14.90;;;;;;;-0.44;100.00;99713.46;105282;1294;73280;-80
2022/12/12 03:33:03;;;;;;;25.80;13.40;;;;;;;-0.35;100.00;99719.71;105228;1296;60432;-78
2022/12/12 03:35:45;;;;;;;24.00;13.30;;;;;;;-0.35;100.00;99726.74;105232;1296;61744;-78
2022/12/12 03:38:25;;;;;;;27.40;14.80;;;;;;;-0.36;100.00;99729.02;105357;1295;72290;-78
2022/12/12 03:40:58;;;;;;;25.10;13.00;;;;;;;-0.32;100.00;99731.40;105321;1289;72359;-78
2022/12/12 03:44:10;;;;;;;28.40;14.60;;;;;;;-0.35;100.00;99729.12;105072;1301;71065;-77
2022/12/12 03:46:59;;;;;;;28.90;15.10;;;;;;;-0.38;100.00;99724.84;105347;1301;73799;-78
2022/12/12 03:49:38;;;;;;;21.80;11.50;;;;;;;-0.39;100.00;99725.39;105367;1296;57223;-78
2022/12/12 03:52:14;;;;;;;24.60;12.90;;;;;;;-0.42;100.00;99733.73;105196;1295;59890;-78
2022/12/12 03:54:52;;;;;;;22.60;12.40;;;;;;;-0.46;100.00;99732.21;105236;1295;72904;-78
2022/12/12 03:57:54;;;;;;;25.80;13.30;;;;;;;-0.52;100.00;99736.02;105335;1291;70808;-77
2022/12/12 04:00:24;;;;;;;25.20;11.30;;;;;;;-0.52;100.00;99744.06;104768;1288;68891;-77
2022/12/12 04:02:57;;;;;;;26.50;12.80;;;;;;;-0.54;100.00;99747.38;105257;1290;73294;-76
2022/12/12 04:08:33;;;;;;;25.30;12.10;;;;;;;-0.58;100.00;99762.46;105304;1298;60341;-82
2022/12/12 04:14:33;;;;;;;27.40;13.80;;;;;;;-0.60;100.00;99768.00;105392;1295;72432;-78
2022/12/12 04:17:05;;;;;;;29.60;13.90;;;;;;;-0.52;100.00;99767.69;105287;1289;68936;-80
2022/12/12 04:29:02;;;;;;;26.30;13.40;;;;;;;-0.61;100.00;99749.73;105273;1296;70910;-76
2022/12/12 04:31:36;;;;;;;26.90;12.00;;;;;;;-0.62;100.00;99754.58;105502;1294;69795;-77
2022/12/12 04:34:14;;;;;;;27.90;14.50;;;;;;;-0.64;100.00;99756.55;105188;1294;70789;-78
2022/12/12 04:36:46;;;;;;;36.00;15.60;;;;;;;-0.65;100.00;99764.79;105375;1294;73136;-77
2022/12/12 04:39:17;;;;;;;28.30;13.00;;;;;;;-0.65;100.00;99767.70;105183;1299;61957;-78
2022/12/12 04:41:50;;;;;;;25.50;11.60;;;;;;;-0.54;100.00;99769.98;105195;1292;59933;-78
2022/12/12 04:44:22;;;;;;;30.80;15.30;;;;;;;-0.55;100.00;99761.66;105368;1284;71781;-79
2022/12/12 04:46:53;;;;;;;28.80;13.80;;;;;;;-0.56;100.00;99768.51;105287;1287;70764;-78
2022/12/12 04:49:27;;;;;;;30.80;14.70;;;;;;;-0.46;100.00;99760.25;104959;1296;68045;-79
2022/12/12 04:52:07;;;;;;;33.30;16.70;;;;;;;-0.36;100.00;99757.06;105194;1294;72118;-79
2022/12/12 04:54:48;;;;;;;27.70;14.10;;;;;;;-0.29;100.00;99754.90;104999;1288;62670;-78
2022/12/12 04:57:44;;;;;;;29.40;14.90;;;;;;;-0.32;100.00;99766.13;105203;1294;59430;-78
2022/12/12 05:00:14;;;;;;;28.00;13.60;;;;;;;-0.39;100.00;99771.23;105132;1299;73034;-79
2022/12/12 05:03:23;;;;;;;28.50;14.10;;;;;;;-0.43;100.00;99780.64;105176;1290;72782;-78
2022/12/12 05:06:06;;;;;;;29.40;14.90;;;;;;;-0.38;100.00;99783.14;104637;1305;69203;-79
2022/12/12 05:08:41;;;;;;;25.20;13.90;;;;;;;-0.35;100.00;99779.95;105171;1290;71935;-81
2022/12/12 05:11:11;;;;;;;27.70;13.70;;;;;;;-0.35;100.00;99777.23;105191;1295;59790;-81
2022/12/12 05:13:42;;;;;;;30.30;16.70;;;;;;;-0.48;100.00;99779.68;105215;1294;58979;-80
2022/12/12 05:16:28;;;;;;;29.50;15.70;;;;;;;-0.44;100.00;99773.32;105251;1292;72977;-81
2022/12/12 05:18:58;;;;;;;31.40;15.50;;;;;;;-0.45;100.00;99780.39;105347;1290;72291;-81
2022/12/12 05:21:27;;;;;;;30.60;16.00;;;;;;;-0.45;100.00;99792.52;105324;1287;70599;-77
2022/12/12 05:23:55;;;;;;;30.10;16.50;;;;;;;-0.44;100.00;99792.64;105397;1292;73965;-73
2022/12/12 05:26:29;;;;;;;34.00;15.40;;;;;;;-0.45;100.00;99793.55;105405;1294;61080;-78
2022/12/12 05:28:59;;;;;;;32.20;16.20;;;;;;;-0.43;100.00;99797.40;105202;1299;59971;-72
2022/12/12 05:31:35;;;;;;;30.50;15.30;;;;;;;-0.51;100.00;99803.52;105234;1295;73848;-77
2022/12/12 05:34:03;;;;;;;31.90;15.30;;;;;;;-0.52;100.00;99804.09;105562;1287;71380;-79
2022/12/12 05:36:32;;;;;;;34.20;14.80;;;;;;;-0.51;100.00;99806.80;105439;1300;68446;-77
2022/12/12 05:39:01;;;;;;;33.10;17.20;;;;;;;-0.57;100.00;99804.48;105205;1291;71339;-77
2022/12/12 05:41:30;;;;;;;31.60;14.90;;;;;;;-0.65;100.00;99811.80;105242;1288;61466;-84
2022/12/12 05:43:58;;;;;;;36.40;16.40;;;;;;;-0.61;100.00;99816.77;105087;1294;61723;-78
2022/12/12 05:46:27;;;;;;;31.30;15.30;;;;;;;-0.57;100.00;99816.45;105263;1293;71999;-79
2022/12/12 05:48:56;;;;;;;30.60;16.40;;;;;;;-0.60;100.00;99810.78;105206;1289;70449;-79
2022/12/12 05:51:25;;;;;;;27.80;14.90;;;;;;;-0.70;100.00;99814.59;105161;1296;70674;-80
2022/12/12 05:53:53;;;;;;;33.60;15.80;;;;;;;-0.68;100.00;99822.19;105229;1288;73905;-75
2022/12/12 05:56:22;;;;;;;35.30;16.90;;;;;;;-0.60;100.00;99827.52;105385;1290;61093;-76
2022/12/12 05:58:51;;;;;;;34.30;16.90;;;;;;;-0.51;100.00;99831.09;105312;1294;58809;-77
2022/12/12 06:01:20;;;;;;;35.80;17.40;;;;;;;-0.43;100.00;99835.57;105307;1292;73755;-75
2022/12/12 06:03:48;;;;;;;35.00;17.30;;;;;;;-0.39;100.00;99837.45;105306;1289;71498;-76
2022/12/12 06:06:17;;;;;;;34.10;16.80;;;;;;;-0.41;100.00;99838.02;105209;1288;67035;-75
2022/12/12 06:08:46;;;;;;;33.50;17.30;;;;;;;-0.46;100.00;99836.34;105118;1287;72065;-75
2022/12/12 06:11:15;;;;;;;35.60;18.00;;;;;;;-0.51;100.00;99834.33;105043;1295;62321;-75
2022/12/12 06:13:44;;;;;;;35.20;16.50;;;;;;;-0.55;100.00;99843.90;104956;1291;60885;-75
2022/12/12 06:16:16;;;;;;;36.60;18.20;;;;;;;-0.57;100.00;99843.48;105187;1284;71551;-75
2022/12/12 06:18:51;;;;;;;38.50;15.90;;;;;;;-0.54;100.00;99849.50;105166;1286;71372;-75
2022/12/12 06:21:21;;;;;;;32.60;15.30;;;;;;;-0.53;100.00;99862.31;104878;1291;68762;-76
2022/12/12 06:23:50;;;;;;;27.60;11.90;;;;;;;-0.59;100.00;99867.50;105239;1286;73375;-76
2022/12/12 06:26:20;;;;;;;29.10;15.00;;;;;;;-0.58;100.00;99867.95;105092;1292;61973;-77
2022/12/12 06:28:49;;;;;;;39.30;19.00;;;;;;;-0.61;100.00;99863.29;105318;1292;61071;-74
2022/12/12 06:31:18;;;;;;;23.90;12.40;;;;;;;-0.54;100.00;99869.36;105146;1299;73625;-77
2022/12/12 06:33:46;;;;;;;23.50;12.70;;;;;;;-0.53;100.00;99875.13;105412;1290;73016;-76
2022/12/12 06:36:22;;;;;;;38.10;16.90;;;;;;;-0.57;100.00;99877.33;105276;1289;68531;-76
2022/12/12 06:38:55;;;;;;;34.30;15.60;;;;;;;-0.56;100.00;99880.39;105391;1285;74122;-75
2022/12/12 06:41:27;;;;;;;28.40;14.00;;;;;;;-0.53;100.00;99880.93;105198;1298;61187;-76
2022/12/12 06:43:55;;;;;;;32.50;17.00;;;;;;;-0.53;100.00;99882.66;105429;1292;61295;-75
2022/12/12 06:46:28;;;;;;;48.30;23.50;;;;;;;-0.57;100.00;99883.33;105404;1293;72251;-77
2022/12/12 06:48:58;;;;;;;30.50;14.30;;;;;;;-0.53;100.00;99888.98;105423;1290;72458;-74
2022/12/12 06:51:35;;;;;;;30.90;16.30;;;;;;;-0.41;100.00;99893.13;105300;1296;70484;-76
2022/12/12 06:54:04;;;;;;;40.00;19.60;;;;;;;-0.43;100.00;99896.80;105322;1291;73472;-76
2022/12/12 06:56:33;;;;;;;21.20;11.10;;;;;;;-0.41;100.00;99903.70;105443;1293;62405;-77
2022/12/12 06:59:02;;;;;;;31.10;17.10;;;;;;;-0.46;100.00;99903.77;105319;1293;60519;-76
2022/12/12 07:01:31;;;;;;;41.60;19.60;;;;;;;-0.54;100.00;99910.07;105267;1292;72483;-76
2022/12/12 07:04:00;;;;;;;30.70;15.40;;;;;;;-0.47;100.00;99913.23;105464;1289;72151;-77
2022/12/12 07:06:28;;;;;;;35.40;15.80;;;;;;;-0.41;100.00;99912.63;105336;1291;70858;-78
2022/12/12 07:08:59;;;;;;;28.40;13.70;;;;;;;-0.42;100.00;99914.56;105332;1290;71147;-78
2022/12/12 07:11:28;;;;;;;25.60;13.20;;;;;;;-0.43;100.00;99919.73;105346;1292;61754;-77
2022/12/12 07:13:57;;;;;;;38.60;20.50;;;;;;;-0.42;100.00;99928.58;105444;1284;61711;-77
2022/12/12 07:16:26;;;;;;;35.40;16.30;;;;;;;-0.43;100.00;99934.95;105426;1290;74296;-76
2022/12/12 07:18:55;;;;;;;30.70;16.00;;;;;;;-0.39;100.00;99940.58;105334;1295;71125;-75
2022/12/12 07:21:23;;;;;;;44.50;21.60;;;;;;;-0.35;100.00;99940.77;105460;1292;71009;-76
2022/12/12 07:23:52;;;;;;;32.50;16.00;;;;;;;-0.28;100.00;99946.48;105425;1292;73619;-76
2022/12/12 07:26:23;;;;;;;43.30;19.60;;;;;;;-0.23;100.00;99952.47;105214;1286;59853;-77
2022/12/12 07:28:51;;;;;;;29.10;14.00;;;;;;;-0.14;100.00;99960.48;105249;1291;61208;-75
2022/12/12 07:31:24;;;;;;;33.90;16.60;;;;;;;-0.16;100.00;99966.58;105249;1298;71728;-77
2022/12/12 07:33:53;;;;;;;;;;;;;;;-0.17;100.00;99976.50;105268;1291;71487;-77
2022/12/12 07:36:22;;;;;;;39.60;18.70;;;;;;;-0.09;100.00;99982.70;105269;1291;68051;-78
2022/12/12 07:38:51;;;;;;;37.60;19.40;;;;;;;0.02;100.00;99987.23;105468;1296;73248;-76
2022/12/12 07:41:20;;;;;;;42.50;20.60;;;;;;;-0.01;100.00;99994.89;105458;1283;60255;-75
2022/12/12 07:43:49;;;;;;;46.20;21.50;;;;;;;0.17;100.00;99990.21;105467;1292;60591;-77
2022/12/12 07:46:24;;;;;;;51.70;24.40;;;;;;;0.23;100.00;99991.35;105276;1298;72279;-76
2022/12/12 07:48:53;;;;;;;46.00;24.20;;;;;;;0.30;100.00;99994.31;105426;1286;70418;-75
2022/12/12 07:51:22;;;;;;;40.70;22.50;;;;;;;0.42;100.00;99994.49;105433;1292;70574;-76
2022/12/12 07:53:51;;;;;;;44.00;22.80;;;;;;;0.63;100.00;99995.48;105199;1290;72445;-74
2022/12/12 07:56:19;;;;;;;47.30;22.50;;;;;;;0.70;100.00;99990.35;105447;1287;61421;-75
2022/12/12 07:58:49;;;;;;;42.70;21.50;;;;;;;1.12;100.00;100000.88;105337;1284;60288;-75
2022/12/12 08:01:22;;;;;;;43.90;22.90;;;;;;;1.02;100.00;100001.84;105428;1289;72907;-75
2022/12/12 08:03:53;;;;;;;;;;;;;;;0.89;100.00;99998.13;105281;1292;71513;-75
2022/12/12 08:06:23;;;;;;;43.60;23.50;;;;;;;0.94;100.00;99989.70;105193;1292;69651;-74
2022/12/12 08:08:52;;;;;;;44.10;22.90;;;;;;;1.18;100.00;99993.23;105384;1291;74592;-76
2022/12/12 08:11:23;;;;;;;39.50;22.00;;;;;;;1.26;100.00;100002.30;105149;1293;61035;-77
2022/12/12 08:13:53;;;;;;;38.60;21.30;;;;;;;1.36;100.00;100002.54;105143;1298;59799;-77
2022/12/12 08:16:29;;;;;;;41.50;22.50;;;;;;;1.45;100.00;100007.63;105584;1286;74149;-81
2022/12/12 08:18:58;;;;;;;45.30;20.10;;;;;;;1.50;100.00;100007.73;105467;1289;69477;-84
2022/12/12 08:21:27;;;;;;;44.60;24.80;;;;;;;1.52;100.00;100010.91;105370;1288;71568;-83
2022/12/12 08:23:58;;;;;;;48.90;23.10;;;;;;;1.52;100.00;100010.25;105346;1295;73400;-81
2022/12/12 08:26:29;;;;;;;45.20;21.70;;;;;;;1.60;100.00;100010.02;105164;1289;60262;-83
2022/12/12 08:28:57;;;;;;;44.30;23.10;;;;;;;1.57;100.00;100008.08;105223;1295;60345;-81
2022/12/12 08:31:27;;;;;;;46.90;23.20;;;;;;;1.74;100.00;100014.02;105320;1291;74209;-82
2022/12/12 08:33:56;;;;;;;50.10;25.30;;;;;;;1.82;100.00;100009.52;105214;1301;73608;-81
2022/12/12 08:36:31;;;;;;;40.10;21.90;;;;;;;1.80;100.00;100003.61;105250;1289;70679;-77
2022/12/12 08:39:11;;;;;;;46.40;23.40;;;;;;;1.47;99.94;99998.95;105185;1292;74165;-81
2022/12/12 08:41:43;;;;;;;46.20;25.50;;;;;;;1.34;100.00;99993.02;105374;1283;61881;-81
2022/12/12 08:44:15;;;;;;;47.00;25.10;;;;;;;1.26;100.00;99992.34;105330;1294;60508;-82
2022/12/12 08:46:51;;;;;;;57.70;28.10;;;;;;;1.38;100.00;99995.61;105082;1294;73505;-81
2022/12/12 08:49:20;;;;;;;62.00;26.30;;;;;;;1.47;100.00;99987.45;105432;1287;70865;-83
2022/12/12 08:51:50;;;;;;;35.70;19.00;;;;;;;1.48;100.00;99989.27;105307;1290;68827;-79
2022/12/12 08:54:19;;;;;;;44.80;22.20;;;;;;;1.24;98.63;99983.00;105353;1293;72382;-81
2022/12/12 08:56:47;;;;;;;34.50;18.80;;;;;;;1.55;100.00;99987.27;105328;1288;61586;-78
2022/12/12 08:59:16;;;;;;;47.90;23.30;;;;;;;1.67;100.00;99985.88;105310;1295;58656;-81
2022/12/12 09:01:45;;;;;;;43.80;22.50;;;;;;;1.76;100.00;99989.00;105439;1283;71802;-78
2022/12/12 09:04:14;;;;;;;55.10;26.00;;;;;;;1.71;99.72;99987.88;105169;1285;70317;-80
2022/12/12 09:06:44;;;;;;;43.80;22.30;;;;;;;1.68;100.00;99977.22;105441;1292;68813;-82
2022/12/12 09:09:13;;;;;;;52.40;25.40;;;;;;;1.64;100.00;99977.58;105288;1288;72032;-79
2022/12/12 09:11:43;;;;;;;44.60;20.60;;;;;;;1.48;99.56;99975.41;105123;1293;60563;-80
2022/12/12 09:14:12;;;;;;;54.40;22.60;;;;;;;1.59;99.84;99979.17;105253;1289;60435;-81
2022/12/12 09:16:41;;;;;;;56.70;23.50;;;;;;;1.66;100.00;99986.23;105332;1288;73526;-80
2022/12/12 09:19:10;;;;;;;47.70;19.90;;;;;;;1.49;98.70;99988.40;105301;1286;72123;-79
2022/12/12 09:21:38;;;;;;;57.70;23.30;;;;;;;1.52;98.96;99992.52;105081;1294;71020;-82
2022/12/12 09:24:08;;;;;;;58.90;28.70;;;;;;;1.57;99.49;99990.42;105050;1295;71985;-80
2022/12/12 09:26:36;;;;;;;40.90;19.90;;;;;;;1.61;99.40;99998.50;105007;1294;61426;-79
2022/12/12 09:29:05;;;;;;;51.90;25.30;;;;;;;1.56;98.31;100002.65;105328;1287;59540;-81
2022/12/12 09:31:34;;;;;;;69.50;30.70;;;;;;;1.68;99.14;99995.75;105324;1292;71070;-81
2022/12/12 09:34:03;;;;;;;57.50;24.20;;;;;;;1.88;100.00;99996.54;105477;1284;71416;-81
2022/12/12 09:36:31;;;;;;;41.70;19.70;;;;;;;1.88;99.43;99997.35;105299;1287;69872;-80
2022/12/12 09:39:00;;;;;;;47.00;22.90;;;;;;;1.76;99.03;99994.00;105272;1293;71887;-81
2022/12/12 09:41:30;;;;;;;58.40;24.40;;;;;;;1.81;99.93;99991.32;105264;1293;60632;-82
2022/12/12 09:44:14;;;;;;;60.60;29.10;;;;;;;1.81;99.24;99985.36;105417;1286;59486;-82
2022/12/12 09:46:54;;;;;;;64.40;28.70;;;;;;;1.73;97.86;99984.20;105305;1287;71709;-81
2022/12/12 09:49:47;;;;;;;71.80;26.70;;;;;;;1.79;96.95;99984.24;105467;1286;71540;-81
2022/12/12 09:52:30;;;;;;;63.30;21.00;;;;;;;1.58;91.81;99980.94;105306;1292;70202;-81
2022/12/12 09:55:08;;;;;;;41.40;18.60;;;;;;;1.79;94.66;99985.78;105321;1292;72053;-82
2022/12/12 09:57:51;;;;;;;328.00;44.50;;;;;;;1.88;94.32;99986.71;105307;1291;61168;-82
2022/12/12 10:00:20;;;;;;;180.40;33.20;;;;;;;1.88;93.51;99988.10;105229;1283;62267;-83
2022/12/12 10:03:25;;;;;;;59.30;23.80;;;;;;;2.03;96.97;99987.88;104974;1292;73002;-84
2022/12/12 10:06:07;;;;;;;29.60;15.20;;;;;;;2.15;92.71;99995.56;105250;1282;61806;-75
2022/12/12 10:10:00;;;;;;;23.40;12.20;;;;;;;2.05;86.04;99996.17;105363;1288;68952;-74
2022/12/12 10:12:30;;;;;;;57.20;20.00;;;;;;;1.81;88.10;99997.71;104718;1293;73998;-75
2022/12/12 10:15:18;;;;;;;52.00;18.50;;;;;;;1.77;88.83;99997.02;105216;1288;61805;-75
2022/12/12 10:17:48;;;;;;;122.50;25.50;;;;;;;1.82;83.78;99994.20;105197;1294;61757;-76
2022/12/12 10:20:34;;;;;;;73.30;25.10;;;;;;;2.10;93.58;99989.59;105392;1294;73761;-76
2022/12/12 10:23:23;;;;;;;48.30;23.90;;;;;;;2.25;91.72;99979.23;105424;1290;61738;-76
2022/12/12 10:26:07;;;;;;;43.00;20.40;;;;;;;2.44;94.05;99973.99;105192;1292;70633;-76
2022/12/12 10:28:36;;;;;;;158.50;31.10;;;;;;;2.69;93.35;99976.16;105320;1292;73923;-76
2022/12/12 10:31:13;;;;;;;126.50;34.70;;;;;;;3.07;91.13;99975.70;105364;1287;62557;-76
2022/12/12 10:34:18;;;;;;;201.60;36.30;;;;;;;3.25;89.01;99980.09;105434;1298;57175;-76
2022/12/12 10:37:34;;;;;;;131.60;30.20;;;;;;;3.24;90.93;99981.68;105418;1297;63129;-77
2022/12/12 10:40:24;;;;;;;999.90;104.30;;;;;;;3.51;94.56;99987.98;105250;1281;71526;-77
2022/12/12 10:43:17;;;;;;;102.00;26.30;;;;;;;3.64;94.64;99991.23;105390;1294;70246;-77
2022/12/12 10:46:03;;;;;;;28.60;16.20;;;;;;;4.23;82.81;99996.00;105126;1294;73310;-80
2022/12/12 10:48:35;;;;;;;26.30;13.10;;;;;;;3.85;79.05;99997.12;105436;1292;61200;-80
2022/12/12 10:51:10;;;;;;;25.00;14.50;;;;;;;3.70;79.74;99992.46;105240;1283;59918;-76
2022/12/12 10:53:41;;;;;;;51.40;17.50;;;;;;;3.55;81.32;99987.42;105228;1294;70273;-70
2022/12/12 10:56:25;;;;;;;24.00;13.60;;;;;;;3.57;80.79;99992.99;105354;1289;70741;-76
2022/12/12 10:59:00;;;;;;;27.00;15.80;;;;;;;3.80;77.75;99983.27;105406;1292;69945;-77
2022/12/12 11:01:36;;;;;;;26.40;15.30;;;;;;;3.55;80.78;99976.95;105279;1293;73020;-75
2022/12/12 11:04:30;;;;;;;25.70;14.50;;;;;;;3.41;80.69;99982.86;105276;1285;62606;-73
2022/12/12 11:06:59;;;;;;;61.10;20.10;;;;;;;3.35;79.44;99984.55;105165;1285;61136;-75
2022/12/12 11:09:29;;;;;;;41.00;20.90;;;;;;;2.76;88.22;99988.68;105147;1288;73724;-71
2022/12/12 11:12:42;;;;;;;40.30;21.70;;;;;;;2.98;89.27;99987.07;105408;1286;72212;-76
2022/12/12 11:15:16;;;;;;;35.50;17.70;;;;;;;3.10;88.60;99987.29;105110;1294;68615;-74
2022/12/12 11:17:44;;;;;;;42.00;20.80;;;;;;;3.55;84.89;99989.66;105194;1288;74089;-75
2022/12/12 11:20:17;;;;;;;42.50;22.00;;;;;;;3.72;90.08;99981.50;105399;1294;61687;-74
2022/12/12 11:22:45;;;;;;;39.50;18.00;;;;;;;4.20;91.49;99983.98;105366;1299;61950;-76
2022/12/12 11:25:32;;;;;;;58.70;25.40;;;;;;;4.46;85.80;99987.60;105434;1287;71352;-75
2022/12/12 11:28:02;;;;;;;40.70;21.60;;;;;;;4.21;83.30;99984.75;105462;1286;69729;-77
2022/12/12 11:30:38;;;;;;;;;;;;;;;3.95;79.48;99985.52;105168;1283;68833;-75
2022/12/12 11:33:18;;;;;;;36.70;21.90;;;;;;;3.86;85.07;99986.56;105224;1295;73974;-75
2022/12/12 11:35:54;;;;;;;31.60;19.10;;;;;;;4.52;83.25;99994.66;105255;1286;61090;-75
2022/12/12 11:38:40;;;;;;;40.90;20.10;;;;;;;5.05;78.43;99998.41;105078;1286;61854;-76
2022/12/12 11:41:11;;;;;;;32.80;19.00;;;;;;;4.58;82.00;100003.79;105469;1289;71893;-76
2022/12/12 11:43:43;;;;;;;40.50;21.20;;;;;;;4.08;82.30;100001.52;105321;1287;61806;-77
2022/12/12 11:46:16;;;;;;;35.20;20.60;;;;;;;3.73;84.37;100001.77;105422;1283;59212;-75
2022/12/12 11:48:46;;;;;;;42.60;20.60;;;;;;;3.81;84.01;100001.69;105387;1291;74061;-75
2022/12/12 11:51:36;;;;;;;35.30;20.40;;;;;;;3.53;85.05;100001.50;105380;1298;63454;-74
2022/12/12 11:54:20;;;;;;;35.00;18.00;;;;;;;3.08;84.12;99999.09;105193;1292;57234;-74
2022/12/12 11:57:02;;;;;;;35.40;18.40;;;;;;;2.93;85.04;99997.95;105390;1288;62946;-76
2022/12/12 12:00:01;;;;;;;44.20;18.80;;;;;;;2.96;88.01;99997.46;105514;1279;61129;-75
2022/12/12 12:02:55;;;;;;;28.60;17.00;;;;;;;2.84;89.75;99992.39;105461;1285;69168;-76
2022/12/12 12:05:56;;;;;;;45.70;18.00;;;;;;;2.87;88.93;99985.52;105261;1289;62660;-75
2022/12/12 12:09:05;;;;;;;61.10;19.50;;;;;;;2.94;91.31;99974.52;105368;1283;59611;-73
2022/12/12 12:12:06;;;;;;;58.50;19.60;;;;;;;3.24;88.45;99966.41;105179;1288;60578;-75